sensor_id;sensor_type;location;lat;lon;timestamp;P1;durP1;ratioP1;P2;durP2;ratioP2
68718;SDS011;55696;52.138;5.444;2023-06-22T00:01:20;12.93;;;7.47;;
68718;SDS011;55696;52.138;5.444;2023-06-22T00:03:48;11.75;;;7.45;;
68718;SDS011;55696;52.138;5.444;2023-06-22T00:06:15;11.50;;;7.40;;
68718;SDS011;55696;52.138;5.444;2023-06-22T00:08:42;10.80;;;7.57;;
68718;SDS011;55696;52.138;5.444;2023-06-22T00:11:09;12.20;;;7.50;;
68718;SDS011;55696;52.138;5.444;2023-06-22T00:13:37;12.30;;;7.22;;
68718;SDS011;55696;52.138;5.444;2023-06-22T00:16:05;13.05;;;7.75;;
68718;SDS011;55696;52.138;5.444;2023-06-22T00:18:32;11.25;;;8.48;;
68718;SDS011;55696;52.138;5.444;2023-06-22T00:20:59;15.93;;;8.05;;
68718;SDS011;55696;52.138;5.444;2023-06-22T00:23:26;10.63;;;7.67;;
68718;SDS011;55696;52.138;5.444;2023-06-22T00:25:53;11.70;;;7.97;;
68718;SDS011;55696;52.138;5.444;2023-06-22T00:28:20;10.85;;;7.10;;
68718;SDS011;55696;52.138;5.444;2023-06-22T00:30:48;11.80;;;8.00;;
68718;SDS011;55696;52.138;5.444;2023-06-22T00:33:17;14.70;;;9.05;;
68718;SDS011;55696;52.138;5.444;2023-06-22T00:35:44;12.50;;;8.27;;
68718;SDS011;55696;52.138;5.444;2023-06-22T00:38:11;12.60;;;7.90;;
68718;SDS011;55696;52.138;5.444;2023-06-22T00:40:40;10.48;;;7.55;;
68718;SDS011;55696;52.138;5.444;2023-06-22T00:43:07;12.00;;;7.68;;
68718;SDS011;55696;52.138;5.444;2023-06-22T00:45:34;15.93;;;8.30;;
68718;SDS011;55696;52.138;5.444;2023-06-22T00:48:01;10.77;;;7.40;;
68718;SDS011;55696;52.138;5.444;2023-06-22T00:50:30;11.48;;;7.70;;
68718;SDS011;55696;52.138;5.444;2023-06-22T00:53:03;11.07;;;7.93;;
68718;SDS011;55696;52.138;5.444;2023-06-22T00:55:36;10.75;;;7.57;;
68718;SDS011;55696;52.138;5.444;2023-06-22T00:58:08;11.65;;;7.93;;
68718;SDS011;55696;52.138;5.444;2023-06-22T01:00:37;13.30;;;7.53;;
68718;SDS011;55696;52.138;5.444;2023-06-22T01:03:05;12.90;;;7.60;;
68718;SDS011;55696;52.138;5.444;2023-06-22T01:05:36;14.20;;;7.90;;
68718;SDS011;55696;52.138;5.444;2023-06-22T01:08:51;12.05;;;7.65;;
68718;SDS011;55696;52.138;5.444;2023-06-22T01:11:16;10.73;;;7.65;;
68718;SDS011;55696;52.138;5.444;2023-06-22T01:16:40;12.88;;;7.80;;
68718;SDS011;55696;52.138;5.444;2023-06-22T01:22:02;11.45;;;7.70;;
68718;SDS011;55696;52.138;5.444;2023-06-22T01:24:44;12.02;;;8.00;;
68718;SDS011;55696;52.138;5.444;2023-06-22T01:30:18;13.20;;;7.82;;
68718;SDS011;55696;52.138;5.444;2023-06-22T01:32:46;14.35;;;7.93;;
68718;SDS011;55696;52.138;5.444;2023-06-22T01:35:14;11.75;;;7.57;;
68718;SDS011;55696;52.138;5.444;2023-06-22T01:37:42;10.98;;;7.53;;
68718;SDS011;55696;52.138;5.444;2023-06-22T01:40:10;14.00;;;7.57;;
68718;SDS011;55696;52.138;5.444;2023-06-22T01:42:38;11.85;;;7.43;;
68718;SDS011;55696;52.138;5.444;2023-06-22T01:45:06;10.38;;;7.35;;
68718;SDS011;55696;52.138;5.444;2023-06-22T01:47:33;12.48;;;8.07;;
68718;SDS011;55696;52.138;5.444;2023-06-22T01:50:01;11.55;;;7.85;;
68718;SDS011;55696;52.138;5.444;2023-06-22T01:52:28;12.23;;;7.30;;
68718;SDS011;55696;52.138;5.444;2023-06-22T01:54:55;10.65;;;6.65;;
68718;SDS011;55696;52.138;5.444;2023-06-22T01:57:24;10.93;;;7.80;;
68718;SDS011;55696;52.138;5.444;2023-06-22T02:02:54;11.45;;;8.00;;
68718;SDS011;55696;52.138;5.444;2023-06-22T02:05:26;13.13;;;7.37;;
68718;SDS011;55696;52.138;5.444;2023-06-22T02:08:06;13.45;;;7.55;;
68718;SDS011;55696;52.138;5.444;2023-06-22T02:10:44;11.45;;;7.63;;
68718;SDS011;55696;52.138;5.444;2023-06-22T02:13:13;10.68;;;7.03;;
68718;SDS011;55696;52.138;5.444;2023-06-22T02:15:41;11.13;;;7.53;;
68718;SDS011;55696;52.138;5.444;2023-06-22T02:18:11;10.83;;;7.93;;
68718;SDS011;55696;52.138;5.444;2023-06-22T02:20:39;11.25;;;8.13;;
68718;SDS011;55696;52.138;5.444;2023-06-22T02:23:07;11.05;;;7.57;;
68718;SDS011;55696;52.138;5.444;2023-06-22T02:25:35;13.43;;;8.30;;
68718;SDS011;55696;52.138;5.444;2023-06-22T02:28:02;12.68;;;7.68;;
68718;SDS011;55696;52.138;5.444;2023-06-22T02:30:30;12.03;;;7.73;;
68718;SDS011;55696;52.138;5.444;2023-06-22T02:32:58;13.48;;;8.70;;
68718;SDS011;55696;52.138;5.444;2023-06-22T02:35:27;12.75;;;7.75;;
68718;SDS011;55696;52.138;5.444;2023-06-22T02:37:58;12.10;;;7.90;;
68718;SDS011;55696;52.138;5.444;2023-06-22T02:40:26;12.73;;;8.00;;
68718;SDS011;55696;52.138;5.444;2023-06-22T02:42:55;13.00;;;8.47;;
68718;SDS011;55696;52.138;5.444;2023-06-22T02:45:24;18.38;;;8.85;;
68718;SDS011;55696;52.138;5.444;2023-06-22T02:47:51;12.25;;;8.63;;
68718;SDS011;55696;52.138;5.444;2023-06-22T02:50:18;14.80;;;8.40;;
68718;SDS011;55696;52.138;5.444;2023-06-22T02:52:45;13.90;;;9.00;;
68718;SDS011;55696;52.138;5.444;2023-06-22T02:55:12;12.60;;;8.37;;
68718;SDS011;55696;52.138;5.444;2023-06-22T02:57:41;14.43;;;8.52;;
68718;SDS011;55696;52.138;5.444;2023-06-22T03:00:10;14.55;;;8.82;;
68718;SDS011;55696;52.138;5.444;2023-06-22T03:02:48;13.23;;;8.48;;
68718;SDS011;55696;52.138;5.444;2023-06-22T03:05:17;13.35;;;8.10;;
68718;SDS011;55696;52.138;5.444;2023-06-22T03:07:45;14.73;;;8.50;;
68718;SDS011;55696;52.138;5.444;2023-06-22T03:10:13;14.73;;;8.60;;
68718;SDS011;55696;52.138;5.444;2023-06-22T03:12:41;13.98;;;9.05;;
68718;SDS011;55696;52.138;5.444;2023-06-22T03:15:10;14.70;;;9.15;;
68718;SDS011;55696;52.138;5.444;2023-06-22T03:17:38;13.77;;;8.38;;
68718;SDS011;55696;52.138;5.444;2023-06-22T03:20:07;13.33;;;9.13;;
68718;SDS011;55696;52.138;5.444;2023-06-22T03:22:39;14.88;;;8.45;;
68718;SDS011;55696;52.138;5.444;2023-06-22T03:25:08;15.75;;;9.25;;
68718;SDS011;55696;52.138;5.444;2023-06-22T03:27:44;16.17;;;9.40;;
68718;SDS011;55696;52.138;5.444;2023-06-22T03:30:11;15.63;;;9.27;;
68718;SDS011;55696;52.138;5.444;2023-06-22T03:32:39;14.93;;;8.20;;
68718;SDS011;55696;52.138;5.444;2023-06-22T03:35:06;13.50;;;8.45;;
68718;SDS011;55696;52.138;5.444;2023-06-22T03:37:35;18.15;;;9.38;;
68718;SDS011;55696;52.138;5.444;2023-06-22T03:40:02;15.50;;;9.52;;
68718;SDS011;55696;52.138;5.444;2023-06-22T03:42:34;16.05;;;8.93;;
68718;SDS011;55696;52.138;5.444;2023-06-22T03:45:02;13.77;;;8.13;;
68718;SDS011;55696;52.138;5.444;2023-06-22T03:47:30;15.48;;;9.18;;
68718;SDS011;55696;52.138;5.444;2023-06-22T03:49:57;12.30;;;8.15;;
68718;SDS011;55696;52.138;5.444;2023-06-22T03:52:24;14.23;;;9.13;;
68718;SDS011;55696;52.138;5.444;2023-06-22T03:54:51;16.67;;;9.73;;
68718;SDS011;55696;52.138;5.444;2023-06-22T03:57:18;16.63;;;9.20;;
68718;SDS011;55696;52.138;5.444;2023-06-22T03:59:45;15.52;;;9.35;;
68718;SDS011;55696;52.138;5.444;2023-06-22T04:02:12;13.18;;;8.60;;
68718;SDS011;55696;52.138;5.444;2023-06-22T04:04:39;16.48;;;9.20;;
68718;SDS011;55696;52.138;5.444;2023-06-22T04:07:06;15.25;;;9.63;;
68718;SDS011;55696;52.138;5.444;2023-06-22T04:09:34;11.90;;;7.90;;
68718;SDS011;55696;52.138;5.444;2023-06-22T04:12:01;15.00;;;8.82;;
68718;SDS011;55696;52.138;5.444;2023-06-22T04:14:28;13.43;;;8.50;;
68718;SDS011;55696;52.138;5.444;2023-06-22T04:16:55;14.50;;;8.55;;
68718;SDS011;55696;52.138;5.444;2023-06-22T04:19:22;13.13;;;8.65;;
68718;SDS011;55696;52.138;5.444;2023-06-22T04:21:49;16.57;;;9.13;;
68718;SDS011;55696;52.138;5.444;2023-06-22T04:24:16;13.68;;;8.75;;
68718;SDS011;55696;52.138;5.444;2023-06-22T04:26:43;16.65;;;9.63;;
68718;SDS011;55696;52.138;5.444;2023-06-22T04:29:11;14.88;;;9.05;;
68718;SDS011;55696;52.138;5.444;2023-06-22T04:31:39;17.25;;;10.10;;
68718;SDS011;55696;52.138;5.444;2023-06-22T04:34:06;13.43;;;8.70;;
68718;SDS011;55696;52.138;5.444;2023-06-22T04:36:37;18.20;;;10.52;;
68718;SDS011;55696;52.138;5.444;2023-06-22T04:39:11;19.67;;;10.65;;
68718;SDS011;55696;52.138;5.444;2023-06-22T04:41:38;18.27;;;10.93;;
68718;SDS011;55696;52.138;5.444;2023-06-22T04:46:37;17.43;;;10.83;;
68718;SDS011;55696;52.138;5.444;2023-06-22T04:49:07;17.08;;;11.20;;
68718;SDS011;55696;52.138;5.444;2023-06-22T04:51:39;17.30;;;11.68;;
68718;SDS011;55696;52.138;5.444;2023-06-22T04:54:07;17.95;;;11.93;;
68718;SDS011;55696;52.138;5.444;2023-06-22T04:56:35;23.10;;;12.52;;
68718;SDS011;55696;52.138;5.444;2023-06-22T04:59:02;18.83;;;12.87;;
68718;SDS011;55696;52.138;5.444;2023-06-22T05:01:29;22.40;;;12.50;;
68718;SDS011;55696;52.138;5.444;2023-06-22T05:04:01;22.25;;;12.82;;
68718;SDS011;55696;52.138;5.444;2023-06-22T05:06:29;20.95;;;12.68;;
68718;SDS011;55696;52.138;5.444;2023-06-22T05:08:56;20.85;;;13.00;;
68718;SDS011;55696;52.138;5.444;2023-06-22T05:11:24;23.57;;;14.23;;
68718;SDS011;55696;52.138;5.444;2023-06-22T05:13:52;23.83;;;13.43;;
68718;SDS011;55696;52.138;5.444;2023-06-22T05:16:20;23.33;;;14.88;;
68718;SDS011;55696;52.138;5.444;2023-06-22T05:18:53;25.45;;;16.70;;
68718;SDS011;55696;52.138;5.444;2023-06-22T05:21:24;22.05;;;15.13;;
68718;SDS011;55696;52.138;5.444;2023-06-22T05:23:53;24.67;;;16.43;;
68718;SDS011;55696;52.138;5.444;2023-06-22T05:26:21;32.40;;;18.67;;
68718;SDS011;55696;52.138;5.444;2023-06-22T05:28:48;27.45;;;17.20;;
68718;SDS011;55696;52.138;5.444;2023-06-22T05:31:15;27.85;;;18.40;;
68718;SDS011;55696;52.138;5.444;2023-06-22T05:33:43;30.40;;;18.98;;
68718;SDS011;55696;52.138;5.444;2023-06-22T05:36:10;27.37;;;18.43;;
68718;SDS011;55696;52.138;5.444;2023-06-22T05:38:37;30.15;;;17.90;;
68718;SDS011;55696;52.138;5.444;2023-06-22T05:41:04;25.27;;;16.20;;
68718;SDS011;55696;52.138;5.444;2023-06-22T05:43:31;29.38;;;17.90;;
68718;SDS011;55696;52.138;5.444;2023-06-22T05:45:59;31.05;;;20.25;;
68718;SDS011;55696;52.138;5.444;2023-06-22T05:48:27;29.13;;;18.27;;
68718;SDS011;55696;52.138;5.444;2023-06-22T05:50:54;31.13;;;19.05;;
68718;SDS011;55696;52.138;5.444;2023-06-22T05:53:21;32.58;;;20.08;;
68718;SDS011;55696;52.138;5.444;2023-06-22T05:55:48;38.13;;;21.88;;
68718;SDS011;55696;52.138;5.444;2023-06-22T05:58:15;31.48;;;20.25;;
68718;SDS011;55696;52.138;5.444;2023-06-22T06:00:42;27.00;;;17.40;;
68718;SDS011;55696;52.138;5.444;2023-06-22T06:03:10;28.95;;;19.80;;
68718;SDS011;55696;52.138;5.444;2023-06-22T06:05:40;27.38;;;18.05;;
68718;SDS011;55696;52.138;5.444;2023-06-22T06:08:07;29.42;;;20.00;;
68718;SDS011;55696;52.138;5.444;2023-06-22T06:10:34;32.78;;;21.08;;
68718;SDS011;55696;52.138;5.444;2023-06-22T06:13:02;28.07;;;18.20;;
68718;SDS011;55696;52.138;5.444;2023-06-22T06:15:31;31.80;;;20.17;;
68718;SDS011;55696;52.138;5.444;2023-06-22T06:17:58;29.08;;;18.58;;
68718;SDS011;55696;52.138;5.444;2023-06-22T06:20:26;26.48;;;17.58;;
68718;SDS011;55696;52.138;5.444;2023-06-22T06:22:55;28.77;;;17.95;;
68718;SDS011;55696;52.138;5.444;2023-06-22T06:25:22;23.33;;;15.33;;
68718;SDS011;55696;52.138;5.444;2023-06-22T06:27:50;29.30;;;18.77;;
68718;SDS011;55696;52.138;5.444;2023-06-22T06:30:18;28.48;;;17.70;;
68718;SDS011;55696;52.138;5.444;2023-06-22T06:32:45;26.40;;;17.88;;
68718;SDS011;55696;52.138;5.444;2023-06-22T06:35:13;30.23;;;19.83;;
68718;SDS011;55696;52.138;5.444;2023-06-22T06:37:43;27.80;;;18.80;;
68718;SDS011;55696;52.138;5.444;2023-06-22T06:40:11;26.75;;;16.95;;
68718;SDS011;55696;52.138;5.444;2023-06-22T06:42:39;26.55;;;18.48;;
68718;SDS011;55696;52.138;5.444;2023-06-22T06:45:08;26.30;;;18.30;;
68718;SDS011;55696;52.138;5.444;2023-06-22T06:47:36;30.60;;;19.35;;
68718;SDS011;55696;52.138;5.444;2023-06-22T06:50:03;29.07;;;19.67;;
68718;SDS011;55696;52.138;5.444;2023-06-22T06:52:31;26.17;;;17.23;;
68718;SDS011;55696;52.138;5.444;2023-06-22T06:54:58;26.17;;;18.08;;
68718;SDS011;55696;52.138;5.444;2023-06-22T06:57:25;26.45;;;15.85;;
68718;SDS011;55696;52.138;5.444;2023-06-22T06:59:56;22.17;;;15.55;;
68718;SDS011;55696;52.138;5.444;2023-06-22T07:02:23;21.70;;;15.10;;
68718;SDS011;55696;52.138;5.444;2023-06-22T07:04:50;23.55;;;13.82;;
68718;SDS011;55696;52.138;5.444;2023-06-22T07:07:17;19.80;;;13.52;;
68718;SDS011;55696;52.138;5.444;2023-06-22T07:09:44;21.63;;;13.73;;
68718;SDS011;55696;52.138;5.444;2023-06-22T07:12:10;25.08;;;15.80;;
68718;SDS011;55696;52.138;5.444;2023-06-22T07:14:37;20.10;;;14.03;;
68718;SDS011;55696;52.138;5.444;2023-06-22T07:17:04;18.92;;;11.77;;
68718;SDS011;55696;52.138;5.444;2023-06-22T07:19:32;21.17;;;14.30;;
68718;SDS011;55696;52.138;5.444;2023-06-22T07:21:59;17.48;;;12.60;;
68718;SDS011;55696;52.138;5.444;2023-06-22T07:24:26;20.70;;;13.20;;
68718;SDS011;55696;52.138;5.444;2023-06-22T07:26:53;21.57;;;14.23;;
68718;SDS011;55696;52.138;5.444;2023-06-22T07:29:20;19.50;;;13.48;;
68718;SDS011;55696;52.138;5.444;2023-06-22T07:31:48;16.40;;;11.52;;
68718;SDS011;55696;52.138;5.444;2023-06-22T07:34:16;21.13;;;14.70;;
68718;SDS011;55696;52.138;5.444;2023-06-22T07:36:44;23.25;;;13.88;;
68718;SDS011;55696;52.138;5.444;2023-06-22T07:39:11;20.40;;;12.10;;
68718;SDS011;55696;52.138;5.444;2023-06-22T07:41:39;19.13;;;12.82;;
68718;SDS011;55696;52.138;5.444;2023-06-22T07:44:07;20.60;;;13.30;;
68718;SDS011;55696;52.138;5.444;2023-06-22T07:46:34;15.90;;;11.45;;
68718;SDS011;55696;52.138;5.444;2023-06-22T07:49:01;19.33;;;13.25;;
68718;SDS011;55696;52.138;5.444;2023-06-22T07:51:28;20.63;;;13.27;;
68718;SDS011;55696;52.138;5.444;2023-06-22T07:53:55;15.77;;;11.48;;
68718;SDS011;55696;52.138;5.444;2023-06-22T07:56:22;18.20;;;11.68;;
68718;SDS011;55696;52.138;5.444;2023-06-22T07:58:49;20.95;;;12.80;;
68718;SDS011;55696;52.138;5.444;2023-06-22T08:01:16;21.08;;;11.77;;
68718;SDS011;55696;52.138;5.444;2023-06-22T08:03:43;17.73;;;12.23;;
68718;SDS011;55696;52.138;5.444;2023-06-22T08:06:10;18.52;;;11.20;;
68718;SDS011;55696;52.138;5.444;2023-06-22T08:08:37;16.63;;;11.30;;
68718;SDS011;55696;52.138;5.444;2023-06-22T08:11:04;17.90;;;11.63;;
68718;SDS011;55696;52.138;5.444;2023-06-22T08:13:32;16.75;;;10.95;;
68718;SDS011;55696;52.138;5.444;2023-06-22T08:15:58;15.30;;;10.13;;
68718;SDS011;55696;52.138;5.444;2023-06-22T08:18:25;15.38;;;9.75;;
68718;SDS011;55696;52.138;5.444;2023-06-22T08:20:52;14.18;;;9.77;;
68718;SDS011;55696;52.138;5.444;2023-06-22T08:23:19;13.77;;;9.23;;
68718;SDS011;55696;52.138;5.444;2023-06-22T08:25:46;16.02;;;9.35;;
68718;SDS011;55696;52.138;5.444;2023-06-22T08:28:14;15.23;;;8.97;;
68718;SDS011;55696;52.138;5.444;2023-06-22T08:30:41;15.68;;;10.10;;
68718;SDS011;55696;52.138;5.444;2023-06-22T08:33:08;15.27;;;9.60;;
68718;SDS011;55696;52.138;5.444;2023-06-22T08:35:35;13.98;;;8.85;;
68718;SDS011;55696;52.138;5.444;2023-06-22T08:38:01;13.20;;;8.23;;
68718;SDS011;55696;52.138;5.444;2023-06-22T08:40:28;12.97;;;7.57;;
68718;SDS011;55696;52.138;5.444;2023-06-22T08:42:55;15.00;;;8.48;;
68718;SDS011;55696;52.138;5.444;2023-06-22T08:45:22;11.95;;;7.88;;
68718;SDS011;55696;52.138;5.444;2023-06-22T08:47:49;11.70;;;8.35;;
68718;SDS011;55696;52.138;5.444;2023-06-22T08:50:16;8.57;;;6.28;;
68718;SDS011;55696;52.138;5.444;2023-06-22T08:52:43;10.13;;;6.57;;
68718;SDS011;55696;52.138;5.444;2023-06-22T08:55:11;10.57;;;7.43;;
68718;SDS011;55696;52.138;5.444;2023-06-22T08:57:39;13.30;;;8.43;;
68718;SDS011;55696;52.138;5.444;2023-06-22T09:00:06;12.65;;;7.07;;
68718;SDS011;55696;52.138;5.444;2023-06-22T09:02:44;9.27;;;5.80;;
68718;SDS011;55696;52.138;5.444;2023-06-22T09:05:11;9.47;;;5.23;;
68718;SDS011;55696;52.138;5.444;2023-06-22T09:07:39;6.35;;;4.35;;
68718;SDS011;55696;52.138;5.444;2023-06-22T09:10:06;8.05;;;4.75;;
68718;SDS011;55696;52.138;5.444;2023-06-22T09:12:33;8.77;;;5.03;;
68718;SDS011;55696;52.138;5.444;2023-06-22T09:15:03;11.48;;;5.45;;
68718;SDS011;55696;52.138;5.444;2023-06-22T09:17:30;11.23;;;6.30;;
68718;SDS011;55696;52.138;5.444;2023-06-22T09:19:57;7.53;;;5.20;;
68718;SDS011;55696;52.138;5.444;2023-06-22T09:22:24;10.07;;;6.32;;
68718;SDS011;55696;52.138;5.444;2023-06-22T09:24:55;8.90;;;5.90;;
68718;SDS011;55696;52.138;5.444;2023-06-22T09:27:22;9.38;;;6.05;;
68718;SDS011;55696;52.138;5.444;2023-06-22T09:29:49;10.00;;;5.93;;
68718;SDS011;55696;52.138;5.444;2023-06-22T09:32:16;9.68;;;5.80;;
68718;SDS011;55696;52.138;5.444;2023-06-22T09:34:43;9.25;;;5.50;;
68718;SDS011;55696;52.138;5.444;2023-06-22T09:37:10;9.93;;;5.82;;
68718;SDS011;55696;52.138;5.444;2023-06-22T09:39:36;8.60;;;5.05;;
68718;SDS011;55696;52.138;5.444;2023-06-22T09:42:03;9.67;;;5.33;;
68718;SDS011;55696;52.138;5.444;2023-06-22T09:44:32;8.38;;;5.78;;
68718;SDS011;55696;52.138;5.444;2023-06-22T09:46:59;8.30;;;5.65;;
68718;SDS011;55696;52.138;5.444;2023-06-22T09:49:26;8.40;;;5.50;;
68718;SDS011;55696;52.138;5.444;2023-06-22T09:52:12;11.73;;;7.18;;
68718;SDS011;55696;52.138;5.444;2023-06-22T09:54:39;10.80;;;6.20;;
68718;SDS011;55696;52.138;5.444;2023-06-22T09:57:05;8.50;;;5.63;;
68718;SDS011;55696;52.138;5.444;2023-06-22T09:59:32;9.45;;;5.55;;
68718;SDS011;55696;52.138;5.444;2023-06-22T10:02:00;9.30;;;5.22;;
68718;SDS011;55696;52.138;5.444;2023-06-22T10:04:27;8.95;;;4.88;;
68718;SDS011;55696;52.138;5.444;2023-06-22T10:06:54;8.07;;;4.57;;
68718;SDS011;55696;52.138;5.444;2023-06-22T10:09:21;7.53;;;4.75;;
68718;SDS011;55696;52.138;5.444;2023-06-22T10:11:48;6.97;;;4.75;;
68718;SDS011;55696;52.138;5.444;2023-06-22T10:14:15;7.70;;;4.97;;
68718;SDS011;55696;52.138;5.444;2023-06-22T10:16:42;9.75;;;4.53;;
68718;SDS011;55696;52.138;5.444;2023-06-22T10:19:09;10.40;;;4.50;;
68718;SDS011;55696;52.138;5.444;2023-06-22T10:21:36;6.05;;;4.00;;
68718;SDS011;55696;52.138;5.444;2023-06-22T10:24:03;7.32;;;3.92;;
68718;SDS011;55696;52.138;5.444;2023-06-22T10:26:33;9.65;;;4.70;;
68718;SDS011;55696;52.138;5.444;2023-06-22T10:29:00;8.00;;;5.00;;
68718;SDS011;55696;52.138;5.444;2023-06-22T10:31:42;8.43;;;4.77;;
68718;SDS011;55696;52.138;5.444;2023-06-22T10:34:08;10.25;;;4.57;;
68718;SDS011;55696;52.138;5.444;2023-06-22T10:36:35;9.30;;;5.10;;
68718;SDS011;55696;52.138;5.444;2023-06-22T10:39:02;7.60;;;4.40;;
68718;SDS011;55696;52.138;5.444;2023-06-22T10:41:29;7.90;;;4.50;;
68718;SDS011;55696;52.138;5.444;2023-06-22T10:43:57;10.20;;;4.73;;
68718;SDS011;55696;52.138;5.444;2023-06-22T10:46:24;10.55;;;5.03;;
68718;SDS011;55696;52.138;5.444;2023-06-22T10:48:54;8.45;;;5.38;;
68718;SDS011;55696;52.138;5.444;2023-06-22T10:51:23;6.53;;;4.53;;
68718;SDS011;55696;52.138;5.444;2023-06-22T10:53:50;8.27;;;4.68;;
68718;SDS011;55696;52.138;5.444;2023-06-22T10:56:17;7.97;;;4.97;;
68718;SDS011;55696;52.138;5.444;2023-06-22T10:58:45;9.23;;;5.32;;
68718;SDS011;55696;52.138;5.444;2023-06-22T11:01:12;10.90;;;4.70;;
68718;SDS011;55696;52.138;5.444;2023-06-22T11:03:59;9.35;;;5.38;;
68718;SDS011;55696;52.138;5.444;2023-06-22T11:06:26;8.80;;;5.45;;
68718;SDS011;55696;52.138;5.444;2023-06-22T11:08:53;9.33;;;5.50;;
68718;SDS011;55696;52.138;5.444;2023-06-22T11:11:32;10.65;;;5.93;;
68718;SDS011;55696;52.138;5.444;2023-06-22T11:13:59;9.48;;;5.25;;
68718;SDS011;55696;52.138;5.444;2023-06-22T11:16:26;10.00;;;5.07;;
68718;SDS011;55696;52.138;5.444;2023-06-22T11:18:53;8.90;;;5.20;;
68718;SDS011;55696;52.138;5.444;2023-06-22T11:21:20;8.80;;;5.97;;
68718;SDS011;55696;52.138;5.444;2023-06-22T11:23:47;10.63;;;5.15;;
68718;SDS011;55696;52.138;5.444;2023-06-22T11:26:14;7.45;;;4.75;;
68718;SDS011;55696;52.138;5.444;2023-06-22T11:28:41;8.38;;;5.03;;
68718;SDS011;55696;52.138;5.444;2023-06-22T11:31:08;7.65;;;4.70;;
68718;SDS011;55696;52.138;5.444;2023-06-22T11:33:52;8.03;;;4.70;;
68718;SDS011;55696;52.138;5.444;2023-06-22T11:36:19;8.60;;;5.03;;
68718;SDS011;55696;52.138;5.444;2023-06-22T11:38:46;8.50;;;5.55;;
68718;SDS011;55696;52.138;5.444;2023-06-22T11:41:13;9.63;;;5.18;;
68718;SDS011;55696;52.138;5.444;2023-06-22T11:43:40;11.15;;;5.40;;
68718;SDS011;55696;52.138;5.444;2023-06-22T11:46:07;10.40;;;5.03;;
68718;SDS011;55696;52.138;5.444;2023-06-22T11:48:34;9.73;;;4.72;;
68718;SDS011;55696;52.138;5.444;2023-06-22T11:51:01;8.73;;;5.30;;
68718;SDS011;55696;52.138;5.444;2023-06-22T11:53:29;10.57;;;4.95;;
68718;SDS011;55696;52.138;5.444;2023-06-22T11:55:56;10.23;;;6.15;;
68718;SDS011;55696;52.138;5.444;2023-06-22T11:58:23;10.30;;;7.10;;
68718;SDS011;55696;52.138;5.444;2023-06-22T12:00:50;11.55;;;8.13;;
68718;SDS011;55696;52.138;5.444;2023-06-22T12:03:19;14.60;;;7.78;;
68718;SDS011;55696;52.138;5.444;2023-06-22T12:05:49;9.63;;;6.65;;
68718;SDS011;55696;52.138;5.444;2023-06-22T12:08:17;12.60;;;7.20;;
68718;SDS011;55696;52.138;5.444;2023-06-22T12:10:44;13.13;;;7.67;;
68718;SDS011;55696;52.138;5.444;2023-06-22T12:13:11;13.75;;;8.32;;
68718;SDS011;55696;52.138;5.444;2023-06-22T12:15:39;12.38;;;8.90;;
68718;SDS011;55696;52.138;5.444;2023-06-22T12:18:06;11.80;;;8.15;;
68718;SDS011;55696;52.138;5.444;2023-06-22T12:20:33;14.82;;;9.63;;
68718;SDS011;55696;52.138;5.444;2023-06-22T12:22:59;15.47;;;7.80;;
68718;SDS011;55696;52.138;5.444;2023-06-22T12:25:26;13.52;;;8.20;;
68718;SDS011;55696;52.138;5.444;2023-06-22T12:27:53;11.63;;;7.85;;
68718;SDS011;55696;52.138;5.444;2023-06-22T12:30:20;11.63;;;7.97;;
68718;SDS011;55696;52.138;5.444;2023-06-22T12:32:47;14.23;;;8.98;;
68718;SDS011;55696;52.138;5.444;2023-06-22T12:35:14;13.73;;;7.93;;
68718;SDS011;55696;52.138;5.444;2023-06-22T12:37:41;18.95;;;8.02;;
68718;SDS011;55696;52.138;5.444;2023-06-22T12:40:09;13.77;;;8.70;;
68718;SDS011;55696;52.138;5.444;2023-06-22T12:42:36;11.18;;;6.97;;
68718;SDS011;55696;52.138;5.444;2023-06-22T12:45:03;12.25;;;7.50;;
68718;SDS011;55696;52.138;5.444;2023-06-22T12:47:31;10.30;;;6.67;;
68718;SDS011;55696;52.138;5.444;2023-06-22T12:49:58;11.98;;;7.40;;
68718;SDS011;55696;52.138;5.444;2023-06-22T12:52:25;12.85;;;6.88;;
68718;SDS011;55696;52.138;5.444;2023-06-22T12:54:51;12.43;;;6.75;;
68718;SDS011;55696;52.138;5.444;2023-06-22T12:57:21;11.00;;;6.00;;
68718;SDS011;55696;52.138;5.444;2023-06-22T12:59:48;10.50;;;6.83;;
68718;SDS011;55696;52.138;5.444;2023-06-22T13:02:15;10.85;;;6.90;;
68718;SDS011;55696;52.138;5.444;2023-06-22T13:04:42;10.32;;;6.18;;
68718;SDS011;55696;52.138;5.444;2023-06-22T13:07:09;11.75;;;7.00;;
68718;SDS011;55696;52.138;5.444;2023-06-22T13:09:48;8.68;;;6.03;;
68718;SDS011;55696;52.138;5.444;2023-06-22T13:12:21;10.23;;;5.93;;
68718;SDS011;55696;52.138;5.444;2023-06-22T13:14:49;13.82;;;7.50;;
68718;SDS011;55696;52.138;5.444;2023-06-22T13:17:15;12.43;;;7.03;;
68718;SDS011;55696;52.138;5.444;2023-06-22T13:19:42;12.82;;;7.43;;
68718;SDS011;55696;52.138;5.444;2023-06-22T13:22:26;13.82;;;8.27;;
68718;SDS011;55696;52.138;5.444;2023-06-22T13:24:55;14.90;;;7.70;;
68718;SDS011;55696;52.138;5.444;2023-06-22T13:27:22;12.20;;;8.18;;
68718;SDS011;55696;52.138;5.444;2023-06-22T13:29:49;14.43;;;8.23;;
68718;SDS011;55696;52.138;5.444;2023-06-22T13:32:17;15.13;;;9.57;;
68718;SDS011;55696;52.138;5.444;2023-06-22T13:34:44;14.63;;;8.88;;
68718;SDS011;55696;52.138;5.444;2023-06-22T13:37:11;12.77;;;8.37;;
68718;SDS011;55696;52.138;5.444;2023-06-22T13:39:37;13.55;;;8.23;;
68718;SDS011;55696;52.138;5.444;2023-06-22T13:42:05;16.23;;;9.55;;
68718;SDS011;55696;52.138;5.444;2023-06-22T13:44:32;14.02;;;8.98;;
68718;SDS011;55696;52.138;5.444;2023-06-22T13:46:59;12.63;;;8.80;;
68718;SDS011;55696;52.138;5.444;2023-06-22T13:49:26;16.90;;;9.70;;
68718;SDS011;55696;52.138;5.444;2023-06-22T13:51:53;16.08;;;10.07;;
68718;SDS011;55696;52.138;5.444;2023-06-22T13:54:20;14.25;;;8.75;;
68718;SDS011;55696;52.138;5.444;2023-06-22T13:56:55;12.20;;;8.85;;
68718;SDS011;55696;52.138;5.444;2023-06-22T13:59:22;13.15;;;9.57;;
68718;SDS011;55696;52.138;5.444;2023-06-22T14:01:49;15.07;;;9.33;;
68718;SDS011;55696;52.138;5.444;2023-06-22T14:04:16;14.40;;;9.98;;
68718;SDS011;55696;52.138;5.444;2023-06-22T14:06:43;16.15;;;10.75;;
68718;SDS011;55696;52.138;5.444;2023-06-22T14:09:10;15.38;;;9.57;;
68718;SDS011;55696;52.138;5.444;2023-06-22T14:11:37;17.42;;;9.70;;
68718;SDS011;55696;52.138;5.444;2023-06-22T14:14:04;14.63;;;10.03;;
68718;SDS011;55696;52.138;5.444;2023-06-22T14:16:30;16.60;;;10.02;;
68718;SDS011;55696;52.138;5.444;2023-06-22T14:18:57;15.13;;;10.43;;
68718;SDS011;55696;52.138;5.444;2023-06-22T14:21:25;15.05;;;10.65;;
68718;SDS011;55696;52.138;5.444;2023-06-22T14:23:52;15.30;;;11.27;;
68718;SDS011;55696;52.138;5.444;2023-06-22T14:26:19;15.47;;;10.67;;
68718;SDS011;55696;52.138;5.444;2023-06-22T14:28:46;14.50;;;10.27;;
68718;SDS011;55696;52.138;5.444;2023-06-22T14:31:15;17.63;;;11.65;;
68718;SDS011;55696;52.138;5.444;2023-06-22T14:33:44;15.50;;;11.02;;
68718;SDS011;55696;52.138;5.444;2023-06-22T14:36:12;16.15;;;11.45;;
68718;SDS011;55696;52.138;5.444;2023-06-22T14:38:44;18.70;;;11.97;;
68718;SDS011;55696;52.138;5.444;2023-06-22T14:41:13;17.20;;;12.05;;
68718;SDS011;55696;52.138;5.444;2023-06-22T14:43:44;19.17;;;12.15;;
68718;SDS011;55696;52.138;5.444;2023-06-22T14:46:19;20.00;;;11.35;;
68718;SDS011;55696;52.138;5.444;2023-06-22T14:48:46;15.75;;;11.35;;
68718;SDS011;55696;52.138;5.444;2023-06-22T14:51:14;19.47;;;12.30;;
68718;SDS011;55696;52.138;5.444;2023-06-22T14:53:43;15.48;;;10.88;;